^^
Grace C. Lehan Memorial Weather Station Historical Data
Daily Summary for February 28, 2021 Units:  Metric    English   Both
Daily Weekly Monthly Yearly
  High: Low: Average:
Temperature: 20.2 °C 13.8 °C 17.6 °C
Dew Point: 18.2 °C 12.7 °C 15.7 °C
Humidity: 96% 79.5% 89%
Wind Speed: 4.7km/h 0km/h 0.2km/h
Wind Gust: 17.7km/h - -
Wind- - West
Pressure: 1010.4 hPa 1006.3 hPa -
Precipitation: 12.45 mm    
 
 
Tabular Data for February 28, 2021
Time Temperature Dew Point Pressure Wind Wind Speed Wind Gust Humidity Rainfall Rate (Hourly) solar
00:09 19.1 °C 15.8 °C 1009 hPa Calm     81% 0 mm 0 W/m2
00:14 19.1 °C 15.7 °C 1009 hPa SSW 0.5 km/h 8 km/h 81% 0 mm 0 W/m2
00:19 19 °C 15.7 °C 1009 hPa Calm   8 km/h 81.2% 0 mm 0 W/m2
00:24 18.9 °C 15.8 °C 1009 hPa Calm   8 km/h 82% 0 mm 0 W/m2
00:29 18.9 °C 15.8 °C 1009 hPa Calm   8 km/h 82% 0 mm 0 W/m2
00:34 18.8 °C 15.7 °C 1009 hPa Calm   8 km/h 82% 0 mm 0 W/m2
00:39 18.8 °C 15.7 °C 1009 hPa Calm     82% 0 mm 0 W/m2
00:44 18.8 °C 15.6 °C 1009 hPa Calm     82% 0 mm 0 W/m2
00:49 18.7 °C 15.6 °C 1009 hPa Calm     82% 0 mm 0 W/m2
00:54 18.7 °C 15.6 °C 1009 hPa Calm     82% 0 mm 0 W/m2
00:59 18.7 °C 15.6 °C 1009 hPa Calm     82% 0 mm 0 W/m2
01:04 18.6 °C 15.5 °C 1009 hPa Calm     82% 0 mm 0 W/m2
01:09 18.6 °C 15.4 °C 1009 hPa Calm     82% 0 mm 0 W/m2
01:14 18.5 °C 15.4 °C 1009 hPa Calm     82% 0 mm 0 W/m2
01:19 18.4 °C 15.3 °C 1009 hPa Calm     82% 0 mm 0 W/m2
01:24 18.4 °C 15.3 °C 1008.7 hPa Calm     82% 0 mm 0 W/m2
01:29 18.3 °C 15.4 °C 1008.7 hPa Calm     83% 0 mm 0 W/m2
01:34 18.3 °C 15.2 °C 1008.7 hPa Calm     82.6% 0 mm 0 W/m2
01:39 18.2 °C 15.1 °C 1008.7 hPa Calm     82% 0 mm 0 W/m2
01:44 18.1 °C 15 °C 1008.7 hPa Calm     82.2% 0 mm 0 W/m2
01:49 18 °C 14.9 °C 1008.7 hPa Calm     82.1% 0 mm 0 W/m2
01:54 17.9 °C 14.8 °C 1008.7 hPa Calm     82% 0 mm 0 W/m2
01:59 17.9 °C 14.8 °C 1008.7 hPa Calm     82% 0 mm 0 W/m2
02:04 17.9 °C 14.8 °C 1008.7 hPa Calm     82% 0 mm 0 W/m2
02:09 17.8 °C 14.7 °C 1008.7 hPa Calm     82% 0 mm 0 W/m2
02:14 17.8 °C 14.7 °C 1008.7 hPa Calm     82% 0 mm 0 W/m2
02:19 17.8 °C 14.7 °C 1008.4 hPa Calm     82% 0 mm 0 W/m2
02:24 17.8 °C 14.5 °C 1008.4 hPa Calm     81.1% 0 mm 0 W/m2
02:29 17.8 °C 14.5 °C 1008.4 hPa Calm     81% 0 mm 0 W/m2
02:34 17.8 °C 14.6 °C 1008.4 hPa Calm     81% 0 mm 0 W/m2
02:39 17.8 °C 14.4 °C 1008.4 hPa Calm     80.2% 0 mm 0 W/m2
02:44 17.9 °C 14.4 °C 1008.4 hPa Calm     80% 0 mm 0 W/m2
02:49 17.9 °C 14.4 °C 1008.4 hPa Calm     80% 0 mm 0 W/m2
02:54 17.9 °C 14.3 °C 1008 hPa Calm     79.7% 0 mm 0 W/m2
02:59 17.9 °C 14.4 °C 1008 hPa Calm     80% 0 mm 0 W/m2
03:04 17.8 °C 14.3 °C 1008 hPa Calm     80% 0 mm 0 W/m2
03:09 17.8 °C 14.3 °C 1008 hPa Calm     80% 0 mm 0 W/m2
03:14 17.7 °C 14.2 °C 1008 hPa Calm     80% 0 mm 0 W/m2
03:19 17.6 °C 14.1 °C 1008 hPa Calm     80% 0 mm 0 W/m2
03:24 17.5 °C 14 °C 1008 hPa Calm     80% 0 mm 0 W/m2
03:29 17.4 °C 14.1 °C 1008 hPa Calm     80.7% 0 mm 0 W/m2
03:34 17.3 °C 14.1 °C 1007.7 hPa Calm     81% 0 mm 0 W/m2
03:39 17.2 °C 13.9 °C 1007.7 hPa Calm     81% 0 mm 0 W/m2
03:44 17.2 °C 13.9 °C 1008 hPa Calm     81% 0 mm 0 W/m2
03:49 17.1 °C 13.8 °C 1008 hPa Calm     81% 0 mm 0 W/m2
03:54 17 °C 13.8 °C 1007.7 hPa Calm     81.7% 0 mm 0 W/m2
03:59 16.9 °C 13.8 °C 1007.7 hPa Calm     82% 0 mm 0 W/m2
04:00 16.9 °C 13.8 °C 1007.7 hPa Calm     82% 0 mm 0 W/m2
04:09 16.8 °C 13.7 °C 1008 hPa Calm     82% 0 mm 0 W/m2
04:14 16.8 °C 13.8 °C 1008 hPa Calm     82.3% 0 mm 0 W/m2
04:19 16.8 °C 13.9 °C 1007.7 hPa Calm     83% 0 mm 0 W/m2
04:24 16.8 °C 13.9 °C 1008 hPa Calm     83% 0 mm 0 W/m2
04:29 16.7 °C 13.8 °C 1008 hPa Calm     83.1% 0 mm 0 W/m2
04:34 16.7 °C 14 °C 1007.7 hPa Calm     84% 0 mm 0 W/m2
04:39 16.7 °C 14 °C 1007.7 hPa Calm     84% 0 mm 0 W/m2
04:44 16.7 °C 14 °C 1007.7 hPa Calm     84% 0 mm 0 W/m2
04:49 16.8 °C 14.1 °C 1007.7 hPa Calm     84% 0 mm 0 W/m2
04:54 16.8 °C 14.1 °C 1007.7 hPa Calm     84% 0 mm 0 W/m2
04:59 16.8 °C 14.1 °C 1007.7 hPa Calm     84% 0 mm 0 W/m2
05:04 16.8 °C 14.2 °C 1007.7 hPa Calm     84% 0 mm 0 W/m2
05:09 16.9 °C 14.2 °C 1007.7 hPa Calm     84% 0 mm 0 W/m2
05:14 17 °C 14.3 °C 1007.7 hPa Calm     84% 0 mm 0 W/m2
05:19 17.1 °C 14.4 °C 1007.7 hPa Calm     84% 0 mm 0 W/m2
05:24 17.2 °C 14.3 °C 1007.7 hPa Calm     83.5% 0 mm 0 W/m2
05:29 17.2 °C 14.3 °C 1007.7 hPa Calm     83% 0 mm 0 W/m2
05:34 17.3 °C 14.4 °C 1007.7 hPa Calm     83% 0 mm 0 W/m2
05:39 17.3 °C 14.4 °C 1007.7 hPa Calm     83% 0 mm 0 W/m2
05:44 17.3 °C 14.3 °C 1007.7 hPa Calm     82.5% 0 mm 0 W/m2
05:49 17.4 °C 14.3 °C 1007.7 hPa Calm     82% 0 mm 0 W/m2
05:54 17.4 °C 14.3 °C 1007.7 hPa Calm     82% 0 mm 0 W/m2
05:59 17.4 °C 14.3 °C 1007.7 hPa Calm     82% 0 mm 0 W/m2
06:04 17.4 °C 14.5 °C 1007.7 hPa Calm     83% 0 mm 0 W/m2
06:09 17.4 °C 14.6 °C 1007.7 hPa Calm     83% 0 mm 0 W/m2
06:14 17.4 °C 14.3 °C 1007.7 hPa Calm     82.1% 0 mm 0 W/m2
06:19 17.4 °C 14.3 °C 1007.7 hPa Calm     82% 0 mm 0 W/m2
06:24 17.4 °C 14.3 °C 1007.7 hPa Calm     82% 0 mm 0 W/m2
06:29 17.4 °C 14.3 °C 1007.7 hPa Calm     82% 0 mm 0 W/m2
06:34 17.4 °C 14.3 °C 1008 hPa Calm     82% 0 mm 0 W/m2
06:39 17.3 °C 14.3 °C 1008 hPa Calm     82.6% 0 mm 0 W/m2
06:44 17.3 °C 14.4 °C 1007.7 hPa Calm     83% 0 mm 0 W/m2
06:49 17.3 °C 14.6 °C 1007.7 hPa Calm     83.9% 0 mm 0 W/m2
06:54 17.3 °C 14.6 °C 1007.7 hPa Calm     84% 0 mm 0 W/m2
06:59 17.2 °C 14.5 °C 1007.7 hPa Calm     84% 0 mm 0 W/m2
07:04 17.2 °C 14.6 °C 1007.7 hPa Calm     84.7% 0 mm 7 W/m2
07:09 17.2 °C 14.7 °C 1007.3 hPa Calm     85% 0 mm 12 W/m2
07:14 17.2 °C 14.7 °C 1007.3 hPa Calm     85% 0 mm 25 W/m2
07:19 17.2 °C 14.7 °C 1007.3 hPa Calm     85% 0 mm 35 W/m2
07:24 17.3 °C 14.7 °C 1007.3 hPa Calm     85% 0 mm 54 W/m2
07:29 17.3 °C 14.8 °C 1007.7 hPa Calm     85% 0 mm 54 W/m2
07:34 17.5 °C 14.9 °C 1007.7 hPa Calm     85% 0 mm 28 W/m2
07:39 17.6 °C 15.1 °C 1007.7 hPa Calm     85.5% 0 mm 46 W/m2
07:44 17.7 °C 15.1 °C 1007.7 hPa Calm     85% 0 mm 28 W/m2
07:49 17.7 °C 15.2 °C 1007.7 hPa Calm     85% 0 mm 7 W/m2
07:54 17.8 °C 15.2 °C 1007.7 hPa Calm     84.8% 0 mm 5 W/m2
07:59 17.8 °C 15.1 °C 1007.7 hPa Calm     84% 0 mm 16 W/m2
08:00 17.8 °C 15.1 °C 1007.7 hPa Calm     84% 0 mm 16 W/m2
08:09 17.9 °C 15.2 °C 1008 hPa Calm     84% 0 mm 26 W/m2
08:14 17.9 °C 15.2 °C 1008 hPa Calm     84% 0 mm 60 W/m2
08:19 17.9 °C 15.3 °C 1007.7 hPa Calm     84.5% 0 mm 91 W/m2
08:24 18 °C 15.4 °C 1007.7 hPa Calm     84.5% 0 mm 91 W/m2
08:29 18.1 °C 15.3 °C 1007.7 hPa Calm     84% 0 mm 104 W/m2
08:34 18.2 °C 15.5 °C 1007.7 hPa SSW 0.2 km/h 4.8 km/h 84% 0 mm 81 W/m2
08:39 18.4 °C 15.7 °C 1007.7 hPa Calm   4.8 km/h 84% 0 mm 100 W/m2
08:44 18.7 °C 15.8 °C 1007.7 hPa Calm   4.8 km/h 83.4% 0 mm 102 W/m2
08:49 18.9 °C 15.9 °C 1008 hPa Calm   4.8 km/h 83% 0 mm 135 W/m2
08:54 19.1 °C 16.1 °C 1008 hPa Calm   4.8 km/h 82.7% 0 mm 127 W/m2
08:59 19.2 °C 16.1 °C 1007.7 hPa Calm   4.8 km/h 82% 0 mm 116 W/m2
09:04 19.4 °C 16.1 °C 1008 hPa Calm   4.8 km/h 81.3% 0 mm 174 W/m2
09:09 19.5 °C 16.2 °C 1008 hPa Calm     81% 0 mm 171 W/m2
09:14 19.7 °C 16.1 °C 1008 hPa Calm     79.6% 0 mm 158 W/m2
09:19 19.8 °C 16.3 °C 1008.4 hPa SSW 0.2 km/h 4.8 km/h 79.9% 0 mm 128 W/m2
09:24 19.9 °C 16.6 °C 1008.4 hPa Calm   4.8 km/h 80.7% 0 mm 127 W/m2
09:29 20 °C 16.6 °C 1008.4 hPa Calm   4.8 km/h 80.8% 0 mm 127 W/m2
09:34 20.1 °C 16.8 °C 1008.4 hPa Calm   4.8 km/h 81.6% 0 mm 127 W/m2
09:39 20.2 °C 17 °C 1008.4 hPa Calm   1.6 km/h 82% 0 mm 93 W/m2
09:44 20.2 °C 16.8 °C 1008.4 hPa Calm   1.6 km/h 80.5% 0 mm 72 W/m2
09:49 20.2 °C 16.7 °C 1008.4 hPa Calm   1.6 km/h 80% 0 mm 56 W/m2
09:54 20.2 °C 16.6 °C 1008.4 hPa Calm   1.6 km/h 79.5% 0 mm 47 W/m2
09:59 20.2 °C 16.6 °C 1008.4 hPa Calm   1.6 km/h 80% 0 mm 39 W/m2
10:04 20.1 °C 16.7 °C 1008 hPa Calm   1.6 km/h 81% 0.25 mm 28 W/m2
10:09 19.8 °C 16.7 °C 1007.7 hPa Calm     82.2% 0.25 mm 58 W/m2
10:14 19.7 °C 16.9 °C 1008 hPa Calm     84.1% 0.51 mm 70 W/m2
10:19 19.6 °C 17.1 °C 1008.4 hPa Calm     85.9% 0.51 mm 79 W/m2
10:24 19.5 °C 17.2 °C 1008.4 hPa Calm     86.9% 0.51 mm 91 W/m2
10:29 19.4 °C 17.4 °C 1008.4 hPa Calm     88% 0.51 mm 250 W/m2
10:34 19.6 °C 17.9 °C 1008.4 hPa Calm     89.9% 0.51 mm 367 W/m2
10:39 19.8 °C 18.2 °C 1008.4 hPa SSW 0.2 km/h 3.2 km/h 90.4% 0.51 mm 316 W/m2
10:44 19.9 °C 18.1 °C 1008.4 hPa Calm   3.2 km/h 89.4% 0.51 mm 146 W/m2
10:49 20 °C 18.1 °C 1008.4 hPa Calm   3.2 km/h 88.6% 0.51 mm 72 W/m2
10:54 20.1 °C 18 °C 1008.4 hPa Calm   3.2 km/h 88% 0.51 mm 79 W/m2
10:59 20.1 °C 17.9 °C 1008.4 hPa Calm   3.2 km/h 87.7% 0.51 mm 67 W/m2
11:04 20 °C 17.8 °C 1008 hPa Calm   3.2 km/h 87% 0.51 mm 62 W/m2
11:09 19.9 °C 17.7 °C 1008 hPa Calm   1.6 km/h 87% 0.51 mm 65 W/m2
11:14 19.9 °C 17.8 °C 1008.4 hPa Calm   1.6 km/h 87.6% 0.51 mm 62 W/m2
11:19 19.8 °C 17.8 °C 1008 hPa Calm   1.6 km/h 88% 0.51 mm 47 W/m2
11:24 19.7 °C 17.7 °C 1008.4 hPa Calm   1.6 km/h 88% 0.51 mm 25 W/m2
11:29 19.6 °C 17.5 °C 1009 hPa SW 1.6 km/h 17.7 km/h 87.8% 0.76 mm 9 W/m2
11:34 19.4 °C 17.3 °C 1009 hPa West 1.6 km/h 17.7 km/h 87.5% 0.76 mm 5 W/m2
11:39 19.2 °C 17.2 °C 1008.7 hPa WNW 4.7 km/h 14.5 km/h 88% 1.78 mm 5 W/m2
11:44 18.9 °C 17.1 °C 1008.4 hPa West 0.5 km/h 14.5 km/h 88.6% 2.03 mm 11 W/m2
11:49 18.8 °C 16.9 °C 1008.4 hPa Calm   14.5 km/h 89% 2.29 mm 11 W/m2
11:54 18.6 °C 16.9 °C 1008.7 hPa West 2.7 km/h 14.5 km/h 89.9% 2.54 mm 11 W/m2
11:59 18.5 °C 16.8 °C 1009 hPa West 2.6 km/h 17.7 km/h 90% 2.79 mm 9 W/m2
12:00 18.4 °C 16.9 °C 1009 hPa Calm   17.7 km/h 91% 2.79 mm 7 W/m2
12:09 18.2 °C 16.8 °C 1008.7 hPa West 0.6 km/h 8 km/h 91% 3.3 mm 5 W/m2
12:14 18.2 °C 16.8 °C 1008.7 hPa Calm   8 km/h 91.8% 3.56 mm 5 W/m2
12:19 18.1 °C 16.8 °C 1008.4 hPa Calm   8 km/h 92% 4.06 mm 7 W/m2
12:24 18 °C 16.7 °C 1008.7 hPa Calm   8 km/h 92% 4.57 mm 7 W/m2
12:29 17.9 °C 16.7 °C 1008.7 hPa Calm   8 km/h 92.4% 5.08 mm 7 W/m2
12:34 17.9 °C 16.8 °C 1008.7 hPa Calm   8 km/h 93% 5.08 mm 7 W/m2
12:39 17.9 °C 16.8 °C 1008.7 hPa Calm     93% 5.84 mm 11 W/m2
12:44 17.9 °C 16.8 °C 1008 hPa Calm     93% 6.35 mm 12 W/m2
12:49 17.9 °C 16.8 °C 1008 hPa Calm     93% 6.86 mm 14 W/m2
12:54 17.9 °C 16.7 °C 1008 hPa Calm     93% 7.37 mm 14 W/m2
12:59 17.8 °C 16.8 °C 1008.4 hPa Calm     93.8% 7.87 mm 19 W/m2
13:04 17.8 °C 16.9 °C 1008.4 hPa Calm     94% 7.87 mm 25 W/m2
13:09 17.9 °C 16.9 °C 1008.7 hPa Calm     94% 4.32 mm 33 W/m2
13:14 17.9 °C 16.9 °C 1008.7 hPa Calm     94% 4.57 mm 51 W/m2
13:19 17.9 °C 16.9 °C 1008.7 hPa Calm     94% 5.08 mm 77 W/m2
13:24 17.9 °C 17 °C 1008.4 hPa Calm     94% 5.59 mm 132 W/m2
13:29 18 °C 17.1 °C 1008.4 hPa Calm     94.6% 5.59 mm 160 W/m2
13:34 18.2 °C 17.3 °C 1008.4 hPa Calm     95% 5.59 mm 146 W/m2
13:39 18.3 °C 17.4 °C 1008.4 hPa Calm     95% 5.59 mm 105 W/m2
13:44 18.3 °C 17.5 °C 1008.4 hPa Calm     95% 5.59 mm 120 W/m2
13:49 18.4 °C 17.6 °C 1008.4 hPa Calm     95% 5.59 mm 179 W/m2
13:54 18.4 °C 17.6 °C 1008 hPa Calm     95% 5.84 mm 176 W/m2
13:59 18.5 °C 17.7 °C 1008 hPa Calm     95% 5.84 mm 158 W/m2
14:04 18.7 °C 17.8 °C 1008 hPa WNW 0.3 km/h 4.8 km/h 95% 5.84 mm 121 W/m2
14:09 18.8 °C 17.9 °C 1007 hPa NNE 3.7 km/h 9.7 km/h 95% 2.79 mm 107 W/m2
14:14 18.7 °C 17.9 °C 1006.3 hPa NE 1.1 km/h 9.7 km/h 95% 2.79 mm 104 W/m2
14:19 18.6 °C 17.8 °C 1006.3 hPa ENE 1.1 km/h 9.7 km/h 95% 2.79 mm 100 W/m2
14:24 18.6 °C 17.8 °C 1006.3 hPa Calm   9.7 km/h 95% 2.79 mm 121 W/m2
14:29 18.6 °C 17.8 °C 1006.3 hPa Calm   9.7 km/h 95% 2.79 mm 113 W/m2
14:34 18.6 °C 17.7 °C 1006.3 hPa Calm   9.7 km/h 95% 2.79 mm 100 W/m2
14:39 18.6 °C 17.7 °C 1006.3 hPa Calm     95% 0.25 mm 72 W/m2
14:44 18.6 °C 17.7 °C 1006.3 hPa Calm     95% 0.25 mm 51 W/m2
14:49 18.6 °C 17.8 °C 1006.3 hPa Calm     95% 0.25 mm 37 W/m2
14:54 18.6 °C 17.8 °C 1006.3 hPa Calm     95% 0.25 mm 28 W/m2
14:59 18.6 °C 17.8 °C 1007 hPa Calm     95% 0.25 mm 18 W/m2
15:04 18.6 °C 17.8 °C 1007 hPa Calm     95% 0.25 mm 28 W/m2
15:09 18.6 °C 17.8 °C 1007.3 hPa Calm     95% 0 mm 30 W/m2
15:14 18.6 °C 17.7 °C 1007.3 hPa Calm     95% 0 mm 32 W/m2
15:19 18.6 °C 17.8 °C 1007.3 hPa Calm     95% 0.25 mm 33 W/m2
15:24 18.6 °C 17.8 °C 1007.3 hPa Calm     95% 0.25 mm 40 W/m2
15:29 18.6 °C 17.8 °C 1007.3 hPa Calm     95% 0.25 mm 39 W/m2
15:34 18.7 °C 17.8 °C 1007.3 hPa Calm     95% 0.25 mm 26 W/m2
15:39 18.7 °C 17.8 °C 1007.3 hPa Calm     95% 0.25 mm 25 W/m2
15:44 18.6 °C 17.8 °C 1007.3 hPa Calm     95% 0.25 mm 16 W/m2
15:49 18.6 °C 17.7 °C 1007.7 hPa Calm     95% 0.25 mm 14 W/m2
15:54 18.6 °C 17.7 °C 1007.7 hPa Calm     95% 0.51 mm 16 W/m2
15:59 18.5 °C 17.7 °C 1007.7 hPa Calm     95% 0.51 mm 16 W/m2
16:00 18.5 °C 17.7 °C 1007.7 hPa Calm     95% 0.51 mm 11 W/m2
16:09 18.4 °C 17.7 °C 1007.7 hPa Calm     95% 0.51 mm 9 W/m2
16:14 18.4 °C 17.6 °C 1007.7 hPa Calm     95% 0.51 mm 11 W/m2
16:19 18.4 °C 17.6 °C 1007.7 hPa Calm     95% 0.76 mm 7 W/m2
16:24 18.4 °C 17.6 °C 1007.7 hPa Calm   1.6 km/h 95% 0.76 mm 12 W/m2
16:29 18.4 °C 17.6 °C 1007.7 hPa Calm   1.6 km/h 95% 0.76 mm 12 W/m2
16:34 18.4 °C 17.6 °C 1007.7 hPa Calm   1.6 km/h 95% 0.76 mm 9 W/m2
16:39 18.4 °C 17.6 °C 1007.7 hPa Calm     95% 0.51 mm 7 W/m2
16:44 18.4 °C 17.6 °C 1007.7 hPa Calm     95% 0.51 mm 5 W/m2
16:49 18.3 °C 17.6 °C 1007.7 hPa Calm     95% 0.76 mm 12 W/m2
16:54 18.3 °C 17.5 °C 1007.7 hPa Calm     95% 0.76 mm 14 W/m2
16:59 18.3 °C 17.5 °C 1007.7 hPa Calm     95% 0.76 mm 16 W/m2
17:04 18.3 °C 17.4 °C 1007.7 hPa Calm     95% 0.76 mm 14 W/m2
17:09 18.3 °C 17.4 °C 1007.3 hPa Calm     95% 0.51 mm 19 W/m2
17:14 18.3 °C 17.4 °C 1007.3 hPa Calm     95% 0.51 mm 25 W/m2
17:19 18.3 °C 17.5 °C 1007.7 hPa Calm     95% 0.51 mm 32 W/m2
17:24 18.3 °C 17.6 °C 1007.7 hPa Calm     95.3% 0.51 mm 30 W/m2
17:29 18.4 °C 17.7 °C 1007.7 hPa Calm     96% 0.51 mm 26 W/m2
17:34 18.4 °C 17.7 °C 1007.7 hPa Calm     96% 0.51 mm 21 W/m2
17:39 18.4 °C 17.8 °C 1007.7 hPa Calm     96% 0.25 mm 14 W/m2
17:44 18.4 °C 17.8 °C 1007.3 hPa Calm     96% 0.25 mm 12 W/m2
17:49 18.4 °C 17.6 °C 1007.7 hPa Calm   1.6 km/h 95.1% 0.25 mm 18 W/m2
17:54 18.4 °C 17.6 °C 1007.7 hPa Calm   1.6 km/h 95% 0.25 mm 18 W/m2
17:59 18.3 °C 17.6 °C 1007.7 hPa Calm   1.6 km/h 95% 0.25 mm 11 W/m2
18:04 18.3 °C 17.5 °C 1008 hPa Calm   1.6 km/h 95% 0.25 mm 0 W/m2
18:09 18.3 °C 17.5 °C 1008 hPa Calm     95% 0 mm 0 W/m2
18:14 18.3 °C 17.6 °C 1008 hPa Calm     95.4% 0 mm 0 W/m2
18:19 18.3 °C 17.4 °C 1008 hPa Calm     95% 0 mm 0 W/m2
18:24 18.2 °C 17.4 °C 1008 hPa Calm     95% 0 mm 0 W/m2
18:29 18.2 °C 17.4 °C 1008.4 hPa Calm     95% 0 mm 0 W/m2
18:34 18.2 °C 17.4 °C 1008.4 hPa Calm     95% 0 mm 0 W/m2
18:39 18.2 °C 17.3 °C 1008.4 hPa Calm     95% 0 mm 0 W/m2
18:44 18.1 °C 17.3 °C 1008.4 hPa Calm     95% 0 mm 0 W/m2
18:49 18.1 °C 17.3 °C 1008.4 hPa Calm     95% 0 mm 0 W/m2
18:54 18.1 °C 17.2 °C 1008.4 hPa Calm     95% 0 mm 0 W/m2
18:59 18.1 °C 17.2 °C 1008.4 hPa Calm     95% 0 mm 0 W/m2
19:04 18 °C 17.3 °C 1008.4 hPa Calm     95.5% 0 mm 0 W/m2
19:09 18 °C 17.3 °C 1008.7 hPa Calm     95.8% 0 mm 0 W/m2
19:14 18 °C 17.3 °C 1008.7 hPa ENE 0.2 km/h 3.2 km/h 96% 0 mm 0 W/m2
19:19 17.9 °C 17.2 °C 1008.7 hPa NE 1.3 km/h 8 km/h 95.2% 0 mm 0 W/m2
19:24 17.8 °C 16.9 °C 1008.7 hPa WNW 2.3 km/h 8 km/h 95% 0 mm 0 W/m2
19:29 17.6 °C 16.8 °C 1009 hPa WNW 3.7 km/h 16.1 km/h 95% 0 mm 0 W/m2
19:34 17.3 °C 16.6 °C 1009 hPa West 1.4 km/h 16.1 km/h 95% 0 mm 0 W/m2
19:39 17.2 °C 16.4 °C 1009 hPa WNW 1.1 km/h 8 km/h 95% 0 mm 0 W/m2
19:44 17.1 °C 16.2 °C 1009 hPa WNW 0.2 km/h 8 km/h 94.5% 0 mm 0 W/m2
19:49 16.9 °C 15.9 °C 1009 hPa WNW 0.2 km/h 8 km/h 94% 0 mm 0 W/m2
19:54 16.8 °C 15.9 °C 1009 hPa Calm   8 km/h 94.4% 0 mm 0 W/m2
19:59 16.7 °C 15.8 °C 1009.4 hPa Calm   8 km/h 94% 0 mm 0 W/m2
20:00 16.7 °C 15.7 °C 1009 hPa Calm   8 km/h 94% 0 mm 0 W/m2
20:09 16.5 °C 15.6 °C 1009.4 hPa WNW 0.3 km/h 4.8 km/h 94% 0 mm 0 W/m2
20:14 16.4 °C 15.4 °C 1009.4 hPa WNW 1.3 km/h 6.4 km/h 94% 0 mm 0 W/m2
20:19 16.3 °C 15.3 °C 1009.4 hPa WNW 0.2 km/h 6.4 km/h 94% 0 mm 0 W/m2
20:24 16.1 °C 15.2 °C 1009.4 hPa WNW 1.8 km/h 6.4 km/h 94% 0 mm 0 W/m2
20:29 15.9 °C 15 °C 1009.4 hPa WNW 1 km/h 6.4 km/h 94% 0 mm 0 W/m2
20:34 15.8 °C 14.8 °C 1009.4 hPa WNW 1 km/h 8 km/h 93.5% 0 mm 0 W/m2
20:39 15.7 °C 14.6 °C 1009.4 hPa NW 0.5 km/h 8 km/h 93% 0 mm 0 W/m2
20:44 15.7 °C 14.5 °C 1009.4 hPa NW 0.6 km/h 8 km/h 93% 0 mm 0 W/m2
20:49 15.6 °C 14.4 °C 1009.4 hPa NW 0.3 km/h 8 km/h 93% 0 mm 0 W/m2
20:54 15.4 °C 14.3 °C 1009.4 hPa NW 0.3 km/h 8 km/h 93% 0 mm 0 W/m2
20:59 15.3 °C 14.2 °C 1009.4 hPa Calm   8 km/h 93% 0 mm 0 W/m2
21:04 15.3 °C 14.2 °C 1009.7 hPa Calm   8 km/h 93% 0 mm 0 W/m2
21:09 15.2 °C 14.1 °C 1009.7 hPa Calm     93% 0 mm 0 W/m2
21:14 15.2 °C 14.1 °C 1009.4 hPa Calm     93% 0 mm 0 W/m2
21:19 15.1 °C 14 °C 1009.4 hPa Calm     93% 0 mm 0 W/m2
21:24 15 °C 13.9 °C 1009.7 hPa Calm     93% 0 mm 0 W/m2
21:29 14.9 °C 13.8 °C 1009.7 hPa Calm     93% 0 mm 0 W/m2
21:34 14.8 °C 13.7 °C 1009.7 hPa Calm     93% 0 mm 0 W/m2
21:39 14.7 °C 13.6 °C 1009.7 hPa Calm     93% 0 mm 0 W/m2
21:44 14.7 °C 13.6 °C 1009.7 hPa NW 0.3 km/h 6.4 km/h 93% 0 mm 0 W/m2
21:49 14.6 °C 13.5 °C 1009.7 hPa NW 3.1 km/h 9.7 km/h 93% 0 mm 0 W/m2
21:54 14.6 °C 13.5 °C 1009.7 hPa WNW 2.1 km/h 9.7 km/h 93% 0 mm 0 W/m2
21:59 14.6 °C 13.4 °C 1009.7 hPa WNW 0.5 km/h 9.7 km/h 93% 0 mm 0 W/m2
22:04 14.5 °C 13.4 °C 1009.7 hPa Calm   9.7 km/h 93% 0 mm 0 W/m2
22:09 14.4 °C 13.3 °C 1010 hPa Calm   1.6 km/h 93% 0 mm 0 W/m2
22:14 14.4 °C 13.3 °C 1010 hPa Calm   1.6 km/h 93.1% 0 mm 0 W/m2
22:19 14.3 °C 13.2 °C 1010 hPa WNW 0.2 km/h 3.2 km/h 93% 0 mm 0 W/m2
22:24 14.3 °C 13.2 °C 1010 hPa WNW 0.2 km/h 4.8 km/h 93.2% 0 mm 0 W/m2
22:29 14.3 °C 13.3 °C 1010 hPa WNW 0.8 km/h 6.4 km/h 94% 0 mm 0 W/m2
22:34 14.2 °C 13.3 °C 1010 hPa Calm   6.4 km/h 94% 0 mm 0 W/m2
22:39 14.2 °C 13.2 °C 1010 hPa Calm     94% 0 mm 0 W/m2
22:44 14.1 °C 13.2 °C 1010 hPa Calm     94% 0 mm 0 W/m2
22:49 14.1 °C 13.1 °C 1010 hPa Calm   1.6 km/h 94% 0 mm 0 W/m2
22:54 14.1 °C 13.1 °C 1010 hPa WNW 0.5 km/h 3.2 km/h 94% 0 mm 0 W/m2
22:59 14 °C 13.1 °C 1010 hPa WNW 0.5 km/h 4.8 km/h 94% 0 mm 0 W/m2
23:04 14 °C 13.1 °C 1010.4 hPa WNW 0.5 km/h 8 km/h 94% 0 mm 0 W/m2
23:09 13.9 °C 13 °C 1010.4 hPa Calm   8 km/h 94% 0 mm 0 W/m2
23:14 13.9 °C 12.9 °C 1010.4 hPa Calm   8 km/h 93.5% 0 mm 0 W/m2
23:19 13.9 °C 12.9 °C 1010.4 hPa WNW 0.2 km/h 8 km/h 93.4% 0 mm 0 W/m2
23:24 13.9 °C 12.9 °C 1010.4 hPa WNW 1.1 km/h 8 km/h 94% 0 mm 0 W/m2
23:29 13.9 °C 13 °C 1010.4 hPa WNW 3.1 km/h 9.7 km/h 94% 0 mm 0 W/m2
23:34 13.9 °C 12.8 °C 1010.4 hPa NW 1.4 km/h 9.7 km/h 93.1% 0 mm 0 W/m2
23:39 13.9 °C 12.8 °C 1010.4 hPa NW 3.5 km/h 9.7 km/h 93% 0 mm 0 W/m2
23:44 13.9 °C 12.8 °C 1010.4 hPa WNW 2.1 km/h 9.7 km/h 93% 0 mm 0 W/m2
23:49 13.9 °C 12.8 °C 1010.4 hPa WNW 2.7 km/h 9.7 km/h 93% 0 mm 0 W/m2
23:54 13.8 °C 12.7 °C 1010.4 hPa WNW 1.3 km/h 9.7 km/h 93% 0 mm 0 W/m2
23:59 13.8 °C 12.7 °C 1010.4 hPa WNW 0.3 km/h 9.7 km/h 93% 0 mm 0 W/m2
Hartford County Weather
Compliments of Weather Underground - 2 mb